Time;durP1;ratioP1;P1;durP2;ratioP2;P2;SDS_P1;SDS_P2;PMS_P1;PMS_P2;Temp;Humidity;BMP_temperature;BMP_pressure;BME280_temperature;BME280_humidity;BME280_pressure;Samples;Min_cycle;Max_cycle;Signal;HPM_P1;HPM_P2
2022/08/02 00:00:13;;;;;;;;;3.80;3.80;;;;;25.92;46.76;101293.47;2087525;28;47453;-58
2022/08/02 00:01:13;;;;;;;;;5.20;4.20;;;;;25.90;47.45;101292.69;2086750;28;47487;-59
2022/08/02 00:02:14;;;;;;;;;4.50;4.50;;;;;25.89;47.45;101288.22;2082563;28;47897;-59
2022/08/02 00:03:14;;;;;;;;;5.00;5.00;;;;;25.88;47.34;101291.94;2091937;28;47992;-58
2022/08/02 00:04:15;;;;;;;;;4.00;4.00;;;;;25.88;46.90;101289.22;2093845;28;47398;-56
2022/08/02 00:05:15;;;;;;;;;4.00;4.00;;;;;25.87;46.66;101295.66;2090207;28;47334;-60
2022/08/02 00:06:16;;;;;;;;;5.00;4.00;;;;;25.87;46.67;101300.22;2093174;28;47230;-60
2022/08/02 00:07:16;;;;;;;;;4.00;4.00;;;;;25.87;47.19;101292.06;2084216;28;47297;-59
2022/08/02 00:08:16;;;;;;;;;4.50;4.50;;;;;25.87;46.96;101297.50;2082102;28;47536;-58
2022/08/02 00:09:17;;;;;;;;;2.50;2.50;;;;;25.88;47.08;101293.78;2086750;28;47339;-58
2022/08/02 00:10:17;;;;;;;;;2.00;2.00;;;;;25.85;47.48;101291.31;2082263;28;47568;-58
2022/08/02 00:11:18;;;;;;;;;4.00;4.00;;;;;25.90;46.96;101294.53;2091771;28;47500;-57
2022/08/02 00:12:19;;;;;;;;;3.20;3.20;;;;;25.90;46.84;101299.97;2094027;28;47334;-60
2022/08/02 00:13:19;;;;;;;;;4.00;4.00;;;;;25.88;47.46;101304.66;2089867;28;47816;-57
2022/08/02 00:14:19;;;;;;;;;4.25;4.25;;;;;25.86;47.36;101296.63;2093985;28;47880;-59
2022/08/02 00:15:20;;;;;;;;;5.00;5.00;;;;;25.85;46.87;101300.34;2092163;28;47261;-58
2022/08/02 00:16:20;;;;;;;;;4.00;4.00;;;;;25.84;47.10;101298.59;2090018;28;47659;-58
2022/08/02 00:17:21;;;;;;;;;5.25;5.25;;;;;25.84;47.42;101292.31;2094626;28;48055;-59
2022/08/02 00:18:21;;;;;;;;;5.00;4.00;;;;;25.83;47.05;101291.44;2070592;28;47436;-57
2022/08/02 00:19:22;;;;;;;;;6.00;6.00;;;;;25.82;47.40;101295.16;2071058;28;47984;-59
2022/08/02 00:20:22;;;;;;;;;5.00;5.00;;;;;25.80;46.84;101287.09;2062216;28;47394;-58
2022/08/02 00:21:22;;;;;;;;;4.00;4.00;;;;;25.81;46.71;101293.41;2063866;28;47225;-57
2022/08/02 00:22:23;;;;;;;;;3.00;3.00;;;;;25.80;47.30;101297.13;2076339;28;46264;-58
2022/08/02 00:23:23;;;;;;;;;2.00;2.00;;;;;25.78;47.34;101290.91;2071441;28;47168;-58
2022/08/02 00:24:24;;;;;;;;;4.00;4.00;;;;;25.75;47.15;101289.28;2062613;28;47440;-59
2022/08/02 00:25:24;;;;;;;;;3.00;2.00;;;;;25.74;46.78;101289.41;2079122;28;47422;-59
2022/08/02 00:26:25;;;;;;;;;6.00;6.00;;;;;25.73;47.40;101285.81;2080446;28;47536;-59
2022/08/02 00:27:25;;;;;;;;;5.50;5.50;;;;;25.72;47.02;101289.53;2087839;28;47332;-56
2022/08/02 00:28:25;;;;;;;;;7.25;4.25;;;;;25.71;47.13;101282.38;2087452;28;47385;-59
2022/08/02 00:29:26;;;;;;;;;4.50;4.50;;;;;25.71;46.97;101279.66;2078162;28;46100;-60
2022/08/02 00:30:26;;;;;;;;;5.00;5.00;;;;;25.71;47.35;101276.94;2080137;28;48077;-57
2022/08/02 00:31:27;;;;;;;;;2.00;2.00;;;;;25.71;46.91;101287.81;2079340;28;47231;-59
2022/08/02 00:32:27;;;;;;;;;3.00;3.00;;;;;25.71;46.88;101282.38;2079470;28;47301;-60
2022/08/02 00:33:27;;;;;;;;;2.75;2.75;;;;;25.70;47.37;101277.91;2079069;28;48090;-58
2022/08/02 00:34:28;;;;;;;;;2.25;2.25;;;;;25.70;47.13;101286.06;2078895;28;47263;-59
2022/08/02 00:35:28;;;;;;;;;2.00;2.00;;;;;25.69;47.05;101278.03;2078900;28;47683;-60
2022/08/02 00:36:29;;;;;;;;;3.25;3.25;;;;;25.69;47.26;101283.47;2078827;28;47893;-58
2022/08/02 00:37:29;;;;;;;;;3.00;3.00;;;;;25.68;46.61;101281.72;2062338;28;47765;-58
2022/08/02 00:38:30;;;;;;;;;3.25;3.25;;;;;25.67;47.31;101279.97;2062676;28;47237;-56
2022/08/02 00:39:30;;;;;;;;;3.75;3.75;;;;;25.66;46.79;101280.94;2078613;28;47637;-58
2022/08/02 00:40:31;;;;;;;;;1.00;1.00;;;;;25.65;46.94;101290.06;2078858;28;47266;-58
2022/08/02 00:41:31;;;;;;;;;3.00;3.00;;;;;25.65;46.42;101281.91;2078701;28;47681;-58
2022/08/02 00:42:31;;;;;;;;;1.00;1.00;;;;;25.63;47.08;101283.88;2079727;28;45740;-58
2022/08/02 00:43:32;;;;;;;;;4.00;2.25;;;;;25.62;46.46;101283.03;2078420;28;47533;-59
2022/08/02 00:44:32;;;;;;;;;3.00;3.00;;;;;25.61;46.35;101281.28;2070818;28;47255;-59
2022/08/02 00:45:34;;;;;;;;;2.50;2.50;;;;;25.61;46.82;101285.84;2070685;28;47529;-58
2022/08/02 00:46:34;;;;;;;;;2.00;2.00;;;;;25.59;47.03;101285.13;2070836;28;47740;-58
2022/08/02 00:47:34;;;;;;;;;2.00;1.00;;;;;25.58;46.93;101283.38;2070301;28;47422;-56
2022/08/02 00:48:35;;;;;;;;;3.00;3.00;;;;;25.56;46.43;101285.34;2070798;28;47112;-59
2022/08/02 00:49:36;;;;;;;;;3.00;3.00;;;;;25.55;46.54;101280.91;2078733;28;47593;-59
2022/08/02 00:50:37;;;;;;;;;2.00;2.00;;;;;25.53;46.52;101283.72;2079174;28;47705;-58
2022/08/02 00:51:39;;;;;;;;;2.00;2.00;;;;;25.52;47.22;101285.56;2079146;28;47456;-58
2022/08/02 00:52:40;;;;;;;;;3.00;3.00;;;;;25.52;46.80;101287.41;2074156;28;47212;-59
2022/08/02 00:53:40;;;;;;;;;3.25;3.25;;;;;25.51;46.86;101288.41;2069515;28;47316;-58
2022/08/02 00:54:41;;;;;;;;;3.00;3.00;;;;;25.50;47.05;101287.53;2087488;28;47689;-59
2022/08/02 00:55:41;;;;;;;;;4.25;4.00;;;;;25.50;47.21;101283.94;2092375;28;47559;-60
2022/08/02 00:56:42;;;;;;;;;3.00;3.00;;;;;25.49;46.75;101293.09;2095658;28;47415;-57
2022/08/02 00:57:42;;;;;;;;;4.00;4.00;;;;;25.49;47.01;101284.94;2081176;28;47527;-58
2022/08/02 00:58:42;;;;;;;;;4.25;4.25;;;;;25.49;46.83;101293.09;2090692;28;47494;-58
2022/08/02 00:59:43;;;;;;;;;9.00;5.00;;;;;25.49;46.46;101288.50;2088834;28;47274;-59
2022/08/02 01:00:43;;;;;;;;;3.50;3.50;;;;;25.49;46.91;101295.81;2096057;28;47611;-59
2022/08/02 01:01:44;;;;;;;;;4.00;4.00;;;;;25.47;46.92;101290.47;2101393;28;47302;-58
2022/08/02 01:02:45;;;;;;;;;7.25;6.00;;;;;25.45;47.28;101289.75;2104930;27;47285;-58
2022/08/02 01:03:45;;;;;;;;;5.00;5.00;;;;;25.44;47.12;101300.72;2104905;27;47994;-58
2022/08/02 01:04:45;;;;;;;;;6.00;5.25;;;;;25.43;46.73;101290.84;2105014;27;47416;-59
2022/08/02 01:05:46;;;;;;;;;6.00;6.00;;;;;25.42;47.42;101289.09;2104845;27;47935;-58
2022/08/02 01:06:46;;;;;;;;;4.50;4.50;;;;;25.41;47.10;101285.53;2104800;28;47385;-59
2022/08/02 01:07:47;;;;;;;;;6.25;6.25;;;;;25.41;46.75;101293.69;2104986;27;47768;-58
2022/08/02 01:08:47;;;;;;;;;6.50;6.50;;;;;25.39;47.37;101290.19;2104735;27;46746;-58
2022/08/02 01:09:47;;;;;;;;;4.50;4.50;;;;;25.40;46.65;101291.91;2105048;27;47529;-58
2022/08/02 01:10:48;;;;;;;;;4.00;4.00;;;;;25.37;46.95;101294.88;2104688;28;47332;-58
2022/08/02 01:11:48;;;;;;;;;4.75;3.25;;;;;25.36;47.02;101292.28;2104580;27;47439;-57
2022/08/02 01:12:49;;;;;;;;;5.00;5.00;;;;;25.35;47.10;101296.84;2105038;28;47564;-58
2022/08/02 01:13:49;;;;;;;;;3.75;3.75;;;;;25.35;46.77;101299.56;2105050;27;47710;-58
2022/08/02 01:14:52;;;;;;;;;7.75;6.00;;;;;25.34;46.92;101295.09;2104810;27;47813;-56
2022/08/02 01:16:03;;;;;;;;;5.00;5.00;;;;;25.34;47.41;101294.25;2104886;27;47954;-59
2022/08/02 01:17:27;;;;;;;;;4.40;3.80;;;;;25.34;47.22;101289.66;2104299;28;47252;-58
2022/08/02 01:18:37;;;;;;;;;4.00;4.00;;;;;25.35;47.26;101296.84;2104675;28;48082;-58
2022/08/02 01:19:47;;;;;;;;;5.25;3.75;;;;;25.35;46.79;101293.25;2104866;27;48095;-58
2022/08/02 01:21:17;;;;;;;;;5.00;5.00;;;;;25.35;47.20;101290.53;2105033;27;47796;-58
2022/08/02 01:22:41;;;;;;;;;3.40;3.40;;;;;25.34;47.34;101297.81;2105031;28;47449;-59
2022/08/02 01:24:17;;;;;;;;;3.40;3.40;;;;;25.33;46.56;101292.50;2104695;27;47471;-59
2022/08/02 01:25:43;;;;;;;;;1.60;1.60;;;;;25.32;46.92;101288.06;2104667;27;47524;-58
2022/08/02 01:26:51;;;;;;;;;2.80;2.80;;;;;25.29;46.92;101294.59;2104812;28;47868;-57
2022/08/02 01:28:13;;;;;;;;;2.20;2.00;;;;;25.27;46.56;101291.09;2104808;27;47165;-59
2022/08/02 01:29:25;;;;;;;;;2.20;2.20;;;;;25.26;46.75;101288.50;2105173;27;47650;-59
2022/08/02 01:30:27;;;;;;;;;2.20;1.80;;;;;25.23;46.76;101290.47;2105714;27;47514;-59
2022/08/02 01:31:37;;;;;;;;;1.75;1.75;;;;;25.22;47.32;101296.00;2105420;27;47581;-57
2022/08/02 01:32:43;;;;;;;;;1.50;1.50;;;;;25.20;46.90;101298.84;2104622;27;47926;-58
2022/08/02 01:33:55;;;;;;;;;2.00;2.00;;;;;25.19;46.91;101302.53;2104812;27;47726;-57
2022/08/02 01:35:18;;;;;;;;;2.00;2.00;;;;;25.18;46.81;101303.53;2100702;28;47600;-58
2022/08/02 01:36:22;;;;;;;;;5.40;3.00;;;;;25.19;47.22;101304.41;2104582;28;47232;-58
2022/08/02 01:37:53;;;;;;;;;2.80;2.80;;;;;25.18;46.94;101305.38;2104032;28;47514;-57
2022/08/02 01:38:55;;;;;;;;;2.25;2.25;;;;;25.18;46.87;101303.53;2102957;28;47794;-58
2022/08/02 01:40:02;;;;;;;;;1.75;1.75;;;;;25.18;46.81;101299.94;2097714;27;47691;-58
2022/08/02 01:41:06;;;;;;;;;4.00;3.00;;;;;25.18;46.95;101308.09;2104480;28;47670;-59
2022/08/02 01:42:09;;;;;;;;;2.50;2.50;;;;;25.13;47.24;101299.41;2104160;28;47557;-58
2022/08/02 01:43:11;;;;;;;;;4.00;4.00;;;;;25.17;47.29;101306.34;2104469;28;48041;-59
2022/08/02 01:44:14;;;;;;;;;2.00;2.00;;;;;25.17;47.22;101303.66;2103709;28;47690;-59
2022/08/02 01:45:17;;;;;;;;;3.00;3.00;;;;;25.16;46.81;101305.50;2104563;27;47545;-59
2022/08/02 01:46:19;;;;;;;;;3.00;3.00;;;;;25.16;46.95;101307.34;2086544;28;48110;-60
2022/08/02 01:47:27;;;;;;;;;2.75;2.25;;;;;25.15;47.36;101306.44;2086753;28;48055;-58
2022/08/02 01:48:31;;;;;;;;;3.20;3.20;;;;;25.17;47.04;101306.34;2098183;28;47514;-58
2022/08/02 01:49:33;;;;;;;;;3.80;3.60;;;;;25.15;47.05;101302.88;2104740;27;48324;-58
2022/08/02 01:50:36;;;;;;;;;3.00;3.00;;;;;25.15;47.03;101301.00;2086427;28;47444;-56
2022/08/02 01:53:01;;;;;;;;;4.60;3.60;;;;;25.15;47.25;101303.72;2095323;28;48209;-56
2022/08/02 01:54:02;;;;;;;;;3.60;3.60;;;;;25.15;47.01;101298.28;2104676;27;47749;-60
2022/08/02 01:55:11;;;;;;;;;3.80;3.80;;;;;25.14;47.21;101301.13;2104833;27;47792;-58
2022/08/02 01:56:14;;;;;;;;;2.60;2.60;;;;;25.15;47.43;101297.44;2104520;27;47484;-56
2022/08/02 01:57:16;;;;;;;;;3.20;3.20;;;;;25.12;46.99;101303.97;2104980;27;47389;-60
2022/08/02 01:58:21;;;;;;;;;5.20;3.40;;;;;25.11;47.56;101307.66;2100416;27;48110;-58
2022/08/02 01:59:23;;;;;;;;;4.00;4.00;;;;;25.11;47.46;101304.94;2104867;27;48391;-57
2022/08/02 02:00:26;;;;;;;;;3.80;3.80;;;;;25.11;47.67;101304.06;2103825;27;47634;-58
2022/08/02 02:01:29;;;;;;;;;3.40;3.40;;;;;25.12;47.46;101301.25;2104779;27;47633;-58
2022/08/02 02:02:31;;;;;;;;;4.20;2.00;;;;;25.11;47.48;101298.66;2104246;27;47535;-57
2022/08/02 02:03:34;;;;;;;;;5.00;5.00;;;;;25.10;47.46;101291.47;2104594;27;47500;-58
2022/08/02 02:04:37;;;;;;;;;4.20;4.20;;;;;25.09;47.34;101295.19;2104543;27;47691;-59
2022/08/02 02:05:39;;;;;;;;;4.20;3.60;;;;;25.06;47.64;101290.84;2103221;28;47646;-58
2022/08/02 02:06:42;;;;;;;;;3.25;3.25;;;;;25.05;47.75;101294.53;2103557;28;47272;-58
2022/08/02 02:07:44;;;;;;;;;3.25;3.25;;;;;25.05;48.08;101294.53;2104971;27;47423;-59
2022/08/02 02:08:46;;;;;;;;;2.00;2.00;;;;;25.06;47.42;101292.69;2104644;27;47566;-59
2022/08/02 02:09:48;;;;;;;;;3.80;3.20;;;;;25.06;47.24;101292.69;2104594;27;47425;-59
2022/08/02 02:10:48;;;;;;;;;2.00;2.00;;;;;25.06;47.63;101290.84;2104368;27;48014;-56
2022/08/02 02:11:49;;;;;;;;;3.00;3.00;;;;;25.04;47.73;101289.22;2104630;27;48004;-59
2022/08/02 02:12:52;;;;;;;;;3.00;3.00;;;;;25.05;48.14;101285.53;2104702;27;47965;-58
2022/08/02 02:13:52;;;;;;;;;4.80;4.00;;;;;25.05;48.05;101290.97;2077998;28;47614;-59
2022/08/02 02:14:55;;;;;;;;;2.75;2.75;;;;;25.03;48.30;101280.22;2078928;28;47526;-60
2022/08/02 02:16:01;;;;;;;;;3.00;3.00;;;;;25.05;47.98;101282.81;2098376;28;46786;-58
2022/08/02 02:17:02;;;;;;;;;3.20;3.00;;;;;25.05;48.12;101278.25;2104160;28;47500;-58
2022/08/02 02:18:04;;;;;;;;;3.80;3.80;;;;;25.01;47.63;101284.88;2103407;28;45778;-59
2022/08/02 02:19:06;;;;;;;;;5.00;5.00;;;;;25.05;47.85;101278.25;2103057;28;47548;-58
2022/08/02 02:20:11;;;;;;;;;6.80;5.60;;;;;25.02;47.95;101278.44;2104463;27;47812;-60
2022/08/02 02:21:12;;;;;;;;;6.40;5.20;;;;;25.03;48.17;101285.66;2104255;27;46872;-59
2022/08/02 02:22:12;;;;;;;;;4.00;4.00;;;;;25.01;48.04;101278.56;2096552;28;47604;-59
2022/08/02 02:23:13;;;;;;;;;4.00;4.00;;;;;25.01;48.45;101278.56;2104433;27;47844;-59
2022/08/02 02:24:14;;;;;;;;;4.50;4.50;;;;;25.01;48.11;101279.44;2104852;27;47373;-57
2022/08/02 02:25:17;;;;;;;;;4.75;4.75;;;;;25.00;48.20;101277.66;2112292;27;47280;-58
2022/08/02 02:26:18;;;;;;;;;3.60;3.60;;;;;24.99;47.95;101267.78;2112270;27;47710;-59
2022/08/02 02:27:21;;;;;;;;;3.80;3.80;;;;;25.00;47.94;101271.38;2104095;27;47265;-58
2022/08/02 02:28:29;;;;;;;;;5.20;5.20;;;;;24.99;47.86;101269.63;2104407;27;46768;-58
2022/08/02 02:29:31;;;;;;;;;5.20;4.20;;;;;24.98;47.93;101270.63;2114317;27;48144;-58
2022/08/02 02:30:33;;;;;;;;;5.00;5.00;;;;;24.99;48.33;101266.94;2120227;27;47126;-59
2022/08/02 02:31:37;;;;;;;;;6.60;5.60;;;;;24.97;48.41;101275.19;2103232;28;47333;-60
2022/08/02 02:32:40;;;;;;;;;7.20;5.60;;;;;24.96;47.98;101276.16;2105216;28;46011;-59
2022/08/02 02:33:51;;;;;;;;;4.60;4.60;;;;;24.95;48.14;101280.72;2105256;28;47958;-56
2022/08/02 02:34:54;;;;;;;;;5.40;5.40;;;;;24.95;48.26;101283.44;2102433;28;48094;-59
2022/08/02 02:35:58;;;;;;;;;4.60;4.60;;;;;24.94;48.16;101279.00;2101932;28;47990;-59
2022/08/02 02:37:03;;;;;;;;;9.00;7.00;;;;;24.94;48.51;101279.00;2105826;27;47741;-58
2022/08/02 02:38:08;;;;;;;;;4.80;4.80;;;;;24.95;48.43;101272.59;2106181;27;47676;-58
2022/08/02 02:39:11;;;;;;;;;5.00;5.00;;;;;24.96;48.39;101273.44;2105125;28;47264;-59
2022/08/02 02:40:14;;;;;;;;;4.00;4.00;;;;;24.97;48.47;101274.31;2105280;28;47555;-58
2022/08/02 02:41:17;;;;;;;;;3.40;3.40;;;;;24.97;48.29;101275.19;2105920;27;47701;-58
2022/08/02 02:42:21;;;;;;;;;4.80;3.60;;;;;24.99;47.93;101272.34;2105858;27;47394;-60
2022/08/02 02:43:23;;;;;;;;;4.00;4.00;;;;;25.00;48.52;101268.66;2106141;27;47958;-57
2022/08/02 02:44:25;;;;;;;;;5.80;5.00;;;;;24.99;48.10;101266.94;2101987;28;46344;-59
2022/08/02 02:45:26;;;;;;;;;4.00;4.00;;;;;24.98;48.60;101270.63;2096953;28;47177;-58
2022/08/02 02:46:29;;;;;;;;;6.00;6.00;;;;;24.98;48.11;101265.19;2105223;28;47695;-57
2022/08/02 02:47:32;;;;;;;;;3.80;3.80;;;;;24.98;48.16;101266.06;2105790;27;47508;-58
2022/08/02 02:48:35;;;;;;;;;4.00;3.80;;;;;24.98;48.26;101270.63;2105605;27;48009;-59
2022/08/02 02:49:36;;;;;;;;;5.00;5.00;;;;;24.97;48.35;101271.59;2105916;27;47785;-58
2022/08/02 02:50:37;;;;;;;;;5.00;5.00;;;;;24.97;48.32;101274.31;2106059;27;47302;-59
2022/08/02 02:51:42;;;;;;;;;8.60;8.60;;;;;24.97;47.96;101271.59;2105731;28;47318;-59
2022/08/02 02:52:43;;;;;;;;;2.00;2.00;;;;;24.97;48.17;101274.31;2104758;28;47870;-57
2022/08/02 02:53:48;;;;;;;;;7.60;7.60;;;;;24.95;48.41;101269.00;2103925;28;47857;-58
2022/08/02 02:54:50;;;;;;;;;6.25;5.75;;;;;24.95;48.41;101278.03;2105737;27;47174;-58
2022/08/02 02:55:52;;;;;;;;;4.00;3.75;;;;;24.93;48.12;101266.41;2105936;28;47746;-60
2022/08/02 02:56:53;;;;;;;;;6.20;6.00;;;;;24.93;48.51;101274.56;2105794;27;47548;-58
2022/08/02 02:57:55;;;;;;;;;5.75;5.75;;;;;24.93;48.14;101269.13;2105352;27;47780;-58
2022/08/02 02:58:56;;;;;;;;;5.80;5.80;;;;;24.92;48.38;101267.38;2105996;27;47755;-58
2022/08/02 02:59:57;;;;;;;;;4.25;4.25;;;;;24.92;48.79;101267.38;2105519;27;46240;-60
2022/08/02 03:02:18;;;;;;;;;4.50;4.50;;;;;24.90;48.58;101263.03;2105747;28;47925;-58
2022/08/02 03:03:19;;;;;;;;;4.00;4.00;;;;;24.89;48.51;101262.16;2105453;27;47278;-58
2022/08/02 03:04:20;;;;;;;;;5.00;4.60;;;;;24.89;48.40;101267.59;2105619;27;47561;-60
2022/08/02 03:05:21;;;;;;;;;4.40;3.60;;;;;24.88;48.45;101265.84;2105906;27;47383;-59
2022/08/02 03:06:21;;;;;;;;;6.25;6.25;;;;;24.88;48.95;101262.28;2106025;28;47469;-59
2022/08/02 03:07:22;;;;;;;;;5.67;5.67;;;;;24.85;48.83;101263.38;2105878;27;47481;-60
2022/08/02 03:08:22;;;;;;;;;3.25;3.25;;;;;24.86;48.66;101259.69;2105085;28;47186;-59
2022/08/02 03:09:23;;;;;;;;;4.00;4.00;;;;;24.84;48.70;101261.63;2104936;28;48276;-58
2022/08/02 03:10:24;;;;;;;;;6.50;6.50;;;;;24.84;48.18;101253.50;2087716;28;47218;-59
2022/08/02 03:11:28;;;;;;;;;5.60;5.60;;;;;24.85;48.35;101257.06;2088146;28;47696;-59
2022/08/02 03:12:29;;;;;;;;;4.40;4.40;;;;;24.85;48.55;101255.22;2105470;28;47374;-58
2022/08/02 03:13:30;;;;;;;;;5.00;5.00;;;;;24.85;48.72;101262.50;2105542;27;48107;-58
2022/08/02 03:14:32;;;;;;;;;6.25;4.50;;;;;24.84;48.71;101264.34;2105727;27;47919;-59
2022/08/02 03:15:33;;;;;;;;;5.80;5.80;;;;;24.84;48.63;101266.19;2105459;27;45989;-60
2022/08/02 03:16:41;;;;;;;;;5.60;4.60;;;;;24.83;48.49;101262.63;2105475;27;47677;-59
2022/08/02 03:17:44;;;;;;;;;4.40;4.40;;;;;24.84;48.92;101263.47;2109384;27;47374;-59
2022/08/02 03:18:44;;;;;;;;;5.20;5.00;;;;;24.83;48.98;101259.03;2102763;28;47815;-59
2022/08/02 03:19:45;;;;;;;;;6.00;4.50;;;;;24.83;48.57;101264.47;2105128;28;47157;-57
2022/08/02 03:20:46;;;;;;;;;5.00;4.50;;;;;24.84;48.90;101263.47;2100302;28;47457;-60
2022/08/02 03:21:49;;;;;;;;;4.00;4.00;;;;;24.83;48.54;101265.34;2105900;27;47290;-57
2022/08/02 03:22:49;;;;;;;;;6.00;6.00;;;;;24.82;48.71;101269.03;2105617;27;47852;-57
2022/08/02 03:23:50;;;;;;;;;5.25;5.25;;;;;24.82;48.99;101269.03;2105527;27;47834;-58
2022/08/02 03:24:50;;;;;;;;;6.25;6.25;;;;;24.81;48.86;101267.31;2105650;27;47518;-59
2022/08/02 03:25:50;;;;;;;;;8.25;7.00;;;;;24.80;48.93;101271.00;2105486;28;48116;-59
2022/08/02 03:26:51;;;;;;;;;5.25;5.25;;;;;24.81;48.79;101269.16;2106149;27;47432;-58
2022/08/02 03:27:51;;;;;;;;;5.25;5.25;;;;;24.81;48.95;101270.00;2105457;28;48183;-60
2022/08/02 03:28:52;;;;;;;;;5.25;5.25;;;;;24.81;48.62;101264.59;2105442;27;47855;-58
2022/08/02 03:29:52;;;;;;;;;5.00;5.00;;;;;24.82;48.60;101257.31;2104126;28;47615;-59
2022/08/02 03:30:53;;;;;;;;;6.25;6.25;;;;;24.80;48.72;101257.41;2105821;27;46047;-58
2022/08/02 03:31:54;;;;;;;;;6.50;6.00;;;;;24.79;48.66;101261.13;2097377;28;47538;-58
2022/08/02 03:32:55;;;;;;;;;6.20;6.20;;;;;24.81;49.09;101258.28;2103672;28;47316;-60
2022/08/02 03:33:58;;;;;;;;;5.00;5.00;;;;;24.80;48.79;101259.28;2104837;28;47554;-58
2022/08/02 03:34:59;;;;;;;;;5.40;4.00;;;;;24.79;48.78;101262.97;2094096;28;46949;-58
2022/08/02 03:36:05;;;;;;;;;6.20;5.40;;;;;24.78;48.81;101255.81;2102131;28;47992;-58
2022/08/02 03:37:06;;;;;;;;;7.20;6.80;;;;;24.78;49.09;101261.22;2105646;27;47335;-58
2022/08/02 03:38:07;;;;;;;;;7.50;7.50;;;;;24.77;48.74;101256.75;2103717;28;47758;-58
2022/08/02 03:39:11;;;;;;;;;4.40;4.40;;;;;24.77;48.76;101257.63;2104149;28;47280;-58
2022/08/02 03:40:12;;;;;;;;;7.20;5.40;;;;;24.77;48.52;101254.03;2100495;27;47405;-59
2022/08/02 03:41:15;;;;;;;;;6.50;6.50;;;;;24.77;48.95;101256.75;2105214;27;47464;-59
2022/08/02 03:42:16;;;;;;;;;7.00;6.00;;;;;24.76;48.72;101258.59;2105233;27;47290;-59
2022/08/02 03:43:17;;;;;;;;;6.25;6.25;;;;;24.76;48.62;101255.88;2105291;27;47210;-59
2022/08/02 03:44:18;;;;;;;;;5.80;5.80;;;;;24.76;48.96;101255.03;2104580;28;47838;-59
2022/08/02 03:45:19;;;;;;;;;7.80;6.40;;;;;24.76;49.22;101260.44;2087570;28;47542;-58
2022/08/02 03:46:22;;;;;;;;;5.00;5.00;;;;;24.75;48.78;101262.28;2096170;28;47549;-58
2022/08/02 03:47:24;;;;;;;;;4.60;4.60;;;;;24.75;48.97;101259.59;2102993;28;47690;-57
2022/08/02 03:48:26;;;;;;;;;5.40;4.20;;;;;24.75;48.52;101259.59;2104557;28;48198;-58
2022/08/02 03:49:27;;;;;;;;;5.20;4.00;;;;;24.75;48.50;101262.28;2105410;27;47786;-59
2022/08/02 03:50:28;;;;;;;;;4.00;4.00;;;;;24.75;49.17;101262.28;2104775;28;48020;-59
2022/08/02 03:51:29;;;;;;;;;6.00;5.00;;;;;24.75;48.66;101259.59;2104645;28;47416;-58
2022/08/02 03:52:32;;;;;;;;;5.00;5.00;;;;;24.74;48.47;101256.97;2101900;27;47292;-59
2022/08/02 03:53:33;;;;;;;;;4.20;4.20;;;;;24.74;49.11;101256.97;2102021;28;47427;-57
2022/08/02 03:54:33;;;;;;;;;4.00;4.00;;;;;24.72;48.79;101250.81;2105491;27;47250;-57
2022/08/02 03:55:34;;;;;;;;;5.25;4.50;;;;;24.72;48.75;101242.66;2104697;28;47307;-57
2022/08/02 03:56:35;;;;;;;;;5.80;5.80;;;;;24.70;48.84;101252.75;2104727;28;47614;-58
2022/08/02 03:57:40;;;;;;;;;5.50;5.50;;;;;24.69;48.88;101248.31;2104025;27;47700;-59
2022/08/02 03:58:41;;;;;;;;;4.20;4.20;;;;;24.68;49.06;101246.59;2103353;28;47602;-59
2022/08/02 03:59:43;;;;;;;;;6.25;6.25;;;;;24.68;48.65;101243.88;2087321;28;48175;-56
2022/08/02 04:00:44;;;;;;;;;6.40;6.40;;;;;24.67;48.92;101247.56;2087809;28;47707;-58
2022/08/02 04:01:45;;;;;;;;;6.25;5.50;;;;;24.65;48.73;101251.25;2102055;28;47669;-58
2022/08/02 04:02:46;;;;;;;;;8.00;8.00;;;;;24.65;48.53;101244.97;2105517;27;47568;-59
2022/08/02 04:03:46;;;;;;;;;9.00;8.80;;;;;24.64;49.16;101251.34;2105282;27;47904;-59
2022/08/02 04:04:47;;;;;;;;;8.50;8.50;;;;;24.64;48.70;101240.50;2104956;28;47512;-59
2022/08/02 04:05:48;;;;;;;;;7.50;7.50;;;;;24.64;49.16;101248.63;2105279;28;47469;-58
2022/08/02 04:06:48;;;;;;;;;6.80;6.80;;;;;24.65;49.22;101248.56;2104578;28;47602;-59
2022/08/02 04:07:49;;;;;;;;;10.50;9.50;;;;;24.65;49.18;101243.13;2098699;28;46227;-59
2022/08/02 04:08:51;;;;;;;;;10.00;10.00;;;;;24.68;49.42;101243.88;2105184;27;47631;-59
2022/08/02 04:09:52;;;;;;;;;8.20;8.20;;;;;24.67;49.51;101248.44;2104550;28;47692;-59
2022/08/02 04:12:11;;;;;;;;;10.60;10.60;;;;;24.69;49.34;101248.31;2102675;28;47571;-57
2022/08/02 04:13:12;;;;;;;;;12.00;12.00;;;;;24.69;48.94;101242.88;2104957;28;47595;-58
2022/08/02 04:14:12;;;;;;;;;11.50;11.50;;;;;24.69;49.13;101243.75;2104582;28;48162;-57
2022/08/02 04:15:14;;;;;;;;;10.25;10.25;;;;;24.69;48.98;101246.47;2105509;27;47625;-58
2022/08/02 04:16:26;;;;;;;;;11.60;10.60;;;;;24.68;49.06;101244.75;2105540;27;47473;-59
2022/08/02 04:17:30;;;;;;;;;9.00;9.00;;;;;24.69;49.03;101240.19;2105020;27;47323;-58
2022/08/02 04:18:40;;;;;;;;;7.60;6.20;;;;;24.69;49.14;101245.59;2105237;27;47528;-58
2022/08/02 04:19:47;;;;;;;;;6.80;6.60;;;;;24.67;49.22;101245.72;2105509;27;47373;-58
2022/08/02 04:20:50;;;;;;;;;6.00;6.00;;;;;24.66;48.95;101238.56;2104618;28;47534;-57
2022/08/02 04:21:53;;;;;;;;;9.60;9.60;;;;;24.64;49.00;101244.06;2105088;27;48169;-58
2022/08/02 04:23:03;;;;;;;;;8.20;8.20;;;;;24.62;49.39;101248.75;2105312;27;47704;-58
2022/08/02 04:24:06;;;;;;;;;6.20;6.20;;;;;24.61;48.94;101244.28;2105162;27;47461;-58
2022/08/02 04:25:09;;;;;;;;;9.40;7.40;;;;;24.61;49.18;101243.44;2104711;28;47380;-59
2022/08/02 04:26:10;;;;;;;;;6.80;6.80;;;;;24.61;48.99;101248.84;2104671;28;47539;-59
2022/08/02 04:27:12;;;;;;;;;6.40;5.00;;;;;24.61;48.99;101243.44;2105094;27;46756;-59
2022/08/02 04:28:15;;;;;;;;;6.00;5.60;;;;;24.60;49.27;101248.00;2105590;27;46947;-59
2022/08/02 04:29:17;;;;;;;;;5.60;5.00;;;;;24.62;49.25;101247.88;2105508;27;47633;-58
2022/08/02 04:30:18;;;;;;;;;4.80;4.80;;;;;24.63;49.40;101241.47;2105518;27;47929;-59
2022/08/02 04:31:20;;;;;;;;;5.60;5.60;;;;;24.63;48.95;101244.19;2103683;28;48041;-59
2022/08/02 04:32:21;;;;;;;;;3.00;3.00;;;;;24.63;49.32;101239.63;2104909;27;47991;-59
2022/08/02 04:33:22;;;;;;;;;4.60;3.80;;;;;24.64;49.18;101244.06;2105044;27;47266;-58
2022/08/02 04:34:23;;;;;;;;;5.00;5.00;;;;;24.67;48.77;101247.56;2105103;27;47461;-59
2022/08/02 04:35:23;;;;;;;;;3.25;1.50;;;;;24.67;49.22;101245.72;2105351;27;47504;-56
2022/08/02 04:36:24;;;;;;;;;6.00;6.00;;;;;24.69;48.76;101248.31;2104764;28;47587;-60
2022/08/02 04:37:25;;;;;;;;;7.00;5.00;;;;;24.68;49.18;101247.44;2104962;27;47201;-58
2022/08/02 04:38:26;;;;;;;;;7.40;6.80;;;;;24.68;48.92;101250.16;2105134;27;47265;-59
2022/08/02 04:39:27;;;;;;;;;5.50;5.50;;;;;24.68;48.76;101252.88;2104940;28;47717;-58
2022/08/02 04:40:27;;;;;;;;;6.75;6.75;;;;;24.69;48.76;101259.19;2104673;28;47841;-60
2022/08/02 04:41:56;;;;;;;;;4.25;4.25;;;;;24.68;49.04;101255.59;2096219;28;47161;-59
2022/08/02 04:42:57;;;;;;;;;7.00;6.00;;;;;24.68;49.00;101257.44;2082832;28;47243;-58
2022/08/02 04:43:57;;;;;;;;;4.25;4.00;;;;;24.67;48.58;101253.88;2078836;28;47202;-58
2022/08/02 04:44:58;;;;;;;;;5.00;4.00;;;;;24.68;49.03;101255.59;2078913;28;47506;-58
2022/08/02 04:46:01;;;;;;;;;5.75;5.75;;;;;24.68;49.11;101265.59;2087373;28;48048;-59
2022/08/02 04:47:04;;;;;;;;;8.00;8.00;;;;;24.67;48.98;101251.16;2087136;28;47201;-59
2022/08/02 04:48:05;;;;;;;;;4.80;4.20;;;;;24.67;49.28;101253.00;2087650;28;47686;-58
2022/08/02 04:49:06;;;;;;;;;7.00;7.00;;;;;24.68;49.00;101252.88;2087420;28;47538;-59
2022/08/02 04:50:07;;;;;;;;;6.40;6.40;;;;;24.68;48.88;101250.16;2087138;28;47816;-58
2022/08/02 04:51:07;;;;;;;;;6.60;5.00;;;;;24.70;49.21;101255.47;2087667;28;47522;-57
2022/08/02 04:52:08;;;;;;;;;6.50;5.00;;;;;24.71;48.86;101246.34;2078168;28;47148;-58
2022/08/02 04:53:08;;;;;;;;;6.00;6.00;;;;;24.73;48.94;101255.25;2079541;28;47527;-59
2022/08/02 04:54:10;;;;;;;;;7.00;7.00;;;;;24.74;48.81;101260.56;2087307;28;47635;-57
2022/08/02 04:55:11;;;;;;;;;7.80;6.40;;;;;24.76;48.55;101250.47;2087233;28;47526;-59